X  Kiinni Metar Aviation säätiedot     EDDH Hamburg Helmut Schmidt Airport
Lämpötila
14°C Lämpötila
10°C Kastepiste
77% Kosteus



Tuuli
1 M/S
2 MPH
3 KM/T
2 KTS



Rauhoittaa
P
Nykyiset olosuhteet

Kirkas Kirkas
Paine 1023.03 (hPa) - 30.21 (inHg)
Näkyvyys 6 (maili) - 9.7 (km)
Lentokenttä
Lentokentän koodi EDDH

Sijainti: Hamburg Helmut Schmidt Airport
Etäisyys: 11 (km)

Metar:
EDDH 200550Z AUTO VRB02KT CAVOK 14/10 Q1023 NOSIG

Aika: 20-06-2024 07:50 CEST